createdAt,value
2018-01-18T00:00:19.742Z,89.06
2018-01-18T00:02:48.073Z,89.07
2018-01-18T00:05:16.386Z,88.96
2018-01-18T00:07:44.722Z,88.79
2018-01-18T00:10:13.033Z,89.07
2018-01-18T00:12:41.373Z,89.00
2018-01-18T00:15:09.709Z,89.38
2018-01-18T00:17:38.017Z,89.32
2018-01-18T00:20:06.355Z,89.61
2018-01-18T00:22:34.661Z,89.00
2018-01-18T00:25:02.997Z,89.20
2018-01-18T00:27:31.314Z,88.92
2018-01-18T00:29:59.647Z,88.50
2018-01-18T00:32:27.962Z,88.89
2018-01-18T00:34:56.294Z,88.58
2018-01-18T00:37:24.612Z,88.28
2018-01-18T00:39:52.946Z,88.43
2018-01-18T00:42:21.261Z,88.89
2018-01-18T00:44:49.598Z,88.98
2018-01-18T00:47:17.905Z,89.25
2018-01-18T00:49:46.242Z,88.81
2018-01-18T00:52:14.553Z,88.86
2018-01-18T00:54:42.889Z,88.53
2018-01-18T00:57:11.203Z,88.94
2018-01-18T00:59:39.529Z,88.91
2018-01-18T01:02:07.838Z,89.16
2018-01-18T01:04:36.169Z,89.17
2018-01-18T01:07:04.482Z,89.12
2018-01-18T01:09:32.819Z,89.31
2018-01-18T01:12:01.126Z,88.95
2018-01-18T01:14:29.462Z,89.29
2018-01-18T01:16:57.780Z,89.11
2018-01-18T01:19:26.114Z,89.21
2018-01-18T01:21:54.435Z,89.23
2018-01-18T01:24:22.771Z,89.44
2018-01-18T01:26:51.090Z,89.14
2018-01-18T01:29:19.422Z,89.31
2018-01-18T01:31:47.737Z,89.21
2018-01-18T01:34:16.066Z,88.97
2018-01-18T01:36:44.381Z,89.18
2018-01-18T01:39:12.721Z,89.31
2018-01-18T01:41:41.038Z,88.87
2018-01-18T01:44:09.368Z,88.82
2018-01-18T01:46:37.681Z,88.98
2018-01-18T01:49:06.017Z,89.09
2018-01-18T01:51:34.330Z,89.01
2018-01-18T01:54:02.667Z,88.78
2018-01-18T01:56:30.979Z,88.91
2018-01-18T01:58:59.305Z,89.10
2018-01-18T02:01:27.622Z,89.18
2018-01-18T02:03:55.949Z,88.89
2018-01-18T02:06:24.265Z,88.51
2018-01-18T02:08:52.634Z,88.80
2018-01-18T02:11:20.905Z,88.79
2018-01-18T02:13:49.250Z,89.03
2018-01-18T02:16:17.561Z,89.09
2018-01-18T02:18:45.864Z,88.85
2018-01-18T02:21:14.207Z,88.50
2018-01-18T02:23:42.513Z,88.62
2018-01-18T02:26:10.849Z,88.38
2018-01-18T02:28:39.157Z,88.34
2018-01-18T02:31:07.493Z,88.16
2018-01-18T02:33:35.813Z,88.27
2018-01-18T02:36:04.146Z,87.88
2018-01-18T02:38:32.457Z,87.73
2018-01-18T02:41:00.798Z,88.01
2018-01-18T02:43:29.119Z,87.38
2018-01-18T02:45:57.457Z,86.99
2018-01-18T02:48:25.778Z,87.27
2018-01-18T02:50:54.101Z,87.11
2018-01-18T02:53:22.413Z,86.96
2018-01-18T02:55:50.782Z,86.90
2018-01-18T02:58:19.077Z,86.80
2018-01-18T03:00:47.415Z,86.48
2018-01-18T03:03:15.729Z,86.02
2018-01-18T03:05:44.425Z,85.97
2018-01-18T03:08:12.738Z,86.43
2018-01-18T03:10:41.064Z,86.60
2018-01-18T03:13:09.403Z,86.31
2018-01-18T03:15:37.718Z,86.41
2018-01-18T03:18:06.021Z,86.23
2018-01-18T03:20:34.358Z,86.42
2018-01-18T03:23:02.674Z,86.04
2018-01-18T03:25:31.001Z,86.38
2018-01-18T03:27:59.313Z,86.10
2018-01-18T03:30:27.645Z,86.31
2018-01-18T03:32:55.961Z,86.23
2018-01-18T03:35:24.299Z,86.77
2018-01-18T03:37:52.600Z,86.56
2018-01-18T03:40:20.981Z,86.65
2018-01-18T03:42:49.240Z,86.23
2018-01-18T03:45:17.574Z,86.42
2018-01-18T03:47:45.890Z,86.49
2018-01-18T03:50:14.226Z,86.29
2018-01-18T03:52:42.534Z,85.96
2018-01-18T03:55:10.862Z,86.16
2018-01-18T03:57:39.173Z,86.08
2018-01-18T04:00:07.505Z,86.42
2018-01-18T04:02:35.822Z,86.24
2018-01-18T04:05:04.149Z,86.13
2018-01-18T04:07:32.465Z,86.40
2018-01-18T04:10:00.796Z,86.26
2018-01-18T04:12:29.117Z,86.25
2018-01-18T04:14:57.462Z,86.22
2018-01-18T04:17:25.780Z,86.48
2018-01-18T04:19:54.094Z,86.30
2018-01-18T04:22:22.430Z,86.11
2018-01-18T04:24:50.753Z,86.44
2018-01-18T04:27:19.085Z,86.24
2018-01-18T04:29:47.393Z,86.22
2018-01-18T04:32:15.724Z,86.13
2018-01-18T04:34:44.037Z,86.25
2018-01-18T04:37:12.371Z,86.21
2018-01-18T04:39:40.682Z,86.34
2018-01-18T04:42:09.009Z,86.48
2018-01-18T04:44:37.322Z,86.72
2018-01-18T04:47:05.652Z,86.49
2018-01-18T04:49:33.973Z,86.48
2018-01-18T04:52:02.301Z,86.50
2018-01-18T04:54:30.618Z,86.36
2018-01-18T04:56:58.949Z,86.22
2018-01-18T04:59:27.257Z,86.12
2018-01-18T05:01:55.584Z,86.37
2018-01-18T05:04:23.901Z,86.46
2018-01-18T05:06:52.238Z,85.93
2018-01-18T05:09:20.562Z,85.53
2018-01-18T05:11:48.902Z,86.00
2018-01-18T05:14:17.218Z,86.16
2018-01-18T05:16:45.545Z,86.51
2018-01-18T05:19:13.876Z,86.55
2018-01-18T05:21:42.209Z,86.68
2018-01-18T05:24:10.521Z,87.83
2018-01-18T05:26:38.858Z,88.45
2018-01-18T05:29:07.161Z,89.00
2018-01-18T05:31:35.530Z,89.44
2018-01-18T05:34:04.006Z,89.68
2018-01-18T05:36:32.344Z,89.99
2018-01-18T05:39:00.662Z,90.15
2018-01-18T05:41:29.001Z,90.55
2018-01-18T05:43:57.821Z,90.96
2018-01-18T05:46:26.233Z,91.59
2018-01-18T05:48:54.541Z,91.31
2018-01-18T05:51:22.886Z,91.48
2018-01-18T05:53:51.207Z,91.39
2018-01-18T05:56:19.534Z,91.35
2018-01-18T05:58:47.850Z,91.53
2018-01-18T06:01:16.189Z,91.52
2018-01-18T06:03:44.505Z,91.33
2018-01-18T06:06:12.850Z,91.37
2018-01-18T06:08:41.169Z,91.19
2018-01-18T06:11:09.525Z,91.33
2018-01-18T06:13:38.050Z,91.47
2018-01-18T06:16:06.578Z,91.20
2018-01-18T06:18:34.885Z,91.42
2018-01-18T06:21:03.225Z,91.60
2018-01-18T06:23:31.641Z,91.77
2018-01-18T06:25:59.951Z,92.09
2018-01-18T06:28:28.292Z,92.01
2018-01-18T06:30:56.607Z,92.21
2018-01-18T06:33:24.953Z,92.46
2018-01-18T06:35:53.278Z,92.61
2018-01-18T06:38:21.615Z,93.10
2018-01-18T06:40:49.934Z,93.32
2018-01-18T06:43:18.276Z,93.72
2018-01-18T06:45:46.589Z,93.50
2018-01-18T06:48:14.936Z,93.27
2018-01-18T06:50:43.242Z,92.99
2018-01-18T06:53:11.578Z,92.79
2018-01-18T06:55:39.894Z,92.71
2018-01-18T06:58:08.269Z,92.75
2018-01-18T07:00:36.577Z,92.72
2018-01-18T07:03:04.909Z,92.82
2018-01-18T07:05:33.222Z,92.79
2018-01-18T07:08:01.563Z,92.74
2018-01-18T07:10:29.882Z,92.61
2018-01-18T07:12:58.215Z,92.59
2018-01-18T07:15:26.531Z,92.65
2018-01-18T07:17:54.857Z,92.61
2018-01-18T07:20:23.175Z,93.00
2018-01-18T07:22:51.505Z,93.16
2018-01-18T07:25:19.827Z,93.54
2018-01-18T07:27:48.162Z,93.73
2018-01-18T07:30:16.482Z,93.94
2018-01-18T07:32:44.810Z,93.83
2018-01-18T07:35:13.122Z,94.08
2018-01-18T07:37:41.463Z,94.14
2018-01-18T07:40:09.818Z,94.15
2018-01-18T07:42:38.106Z,94.11
2018-01-18T07:45:06.418Z,94.20
2018-01-18T07:47:34.750Z,94.26
2018-01-18T07:50:03.064Z,93.99
2018-01-18T07:52:31.393Z,94.01
2018-01-18T07:54:59.702Z,93.96
2018-01-18T07:57:28.046Z,93.83
2018-01-18T07:59:56.350Z,93.57
2018-01-18T08:02:24.677Z,93.53
2018-01-18T08:04:52.989Z,93.89
2018-01-18T08:07:21.313Z,93.76
2018-01-18T08:09:49.617Z,93.42
2018-01-18T08:12:17.955Z,93.16
2018-01-18T08:14:46.266Z,92.98
2018-01-18T08:17:14.615Z,93.05
2018-01-18T08:19:42.926Z,92.92
2018-01-18T08:22:11.238Z,93.47
2018-01-18T08:24:39.569Z,93.98
2018-01-18T08:27:07.883Z,94.55
2018-01-18T08:29:36.205Z,94.64
2018-01-18T08:32:04.569Z,94.63
2018-01-18T08:34:32.838Z,94.59
2018-01-18T08:37:01.144Z,94.74
2018-01-18T08:39:29.635Z,95.26
2018-01-18T08:41:57.927Z,95.42
2018-01-18T08:44:26.263Z,95.27
2018-01-18T08:46:54.565Z,94.99
2018-01-18T08:49:22.897Z,94.94
2018-01-18T08:51:51.205Z,95.19
2018-01-18T08:54:19.529Z,94.94
2018-01-18T08:56:47.846Z,94.87
2018-01-18T08:59:16.173Z,95.20
2018-01-18T09:01:44.482Z,95.05
2018-01-18T09:04:12.813Z,94.62
2018-01-18T09:06:41.127Z,94.14
2018-01-18T09:09:09.465Z,94.58
2018-01-18T09:11:37.771Z,94.89
2018-01-18T09:14:06.102Z,95.03
2018-01-18T09:16:34.411Z,95.38
2018-01-18T09:19:02.746Z,96.09
2018-01-18T09:21:31.062Z,96.73
2018-01-18T09:23:59.395Z,97.28
2018-01-18T09:26:27.698Z,97.77
2018-01-18T09:28:56.027Z,97.98
2018-01-18T09:31:24.329Z,97.99
2018-01-18T09:33:52.662Z,97.90
2018-01-18T09:36:21.878Z,97.70
2018-01-18T09:38:50.210Z,97.51
2018-01-18T09:41:18.519Z,97.05
2018-01-18T09:43:46.847Z,96.87
2018-01-18T09:46:15.153Z,96.19
2018-01-18T09:48:43.484Z,95.45
2018-01-18T09:51:11.801Z,94.83
2018-01-18T09:53:40.139Z,94.55
2018-01-18T09:56:08.453Z,94.36
2018-01-18T09:58:36.790Z,93.82
2018-01-18T10:01:05.112Z,93.15
2018-01-18T10:03:33.453Z,92.55
2018-01-18T10:06:01.765Z,92.67
2018-01-18T10:08:30.098Z,92.73
2018-01-18T10:10:58.418Z,92.89
2018-01-18T10:13:26.765Z,90.95
2018-01-18T10:15:55.090Z,90.83
2018-01-18T10:18:23.435Z,90.47
2018-01-18T10:20:51.776Z,90.60
2018-01-18T10:23:20.087Z,91.08
2018-01-18T10:25:48.436Z,91.54
2018-01-18T10:28:16.749Z,91.14
2018-01-18T10:30:45.091Z,91.00
2018-01-18T10:33:13.403Z,91.11
2018-01-18T10:35:41.770Z,89.49
2018-01-18T10:38:10.054Z,86.16
2018-01-18T10:40:38.399Z,82.30
2018-01-18T10:43:06.738Z,79.91
2018-01-18T10:45:35.079Z,77.44
2018-01-18T10:48:04.348Z,76.05
2018-01-18T10:50:32.685Z,76.89
2018-01-18T10:53:00.998Z,75.15
2018-01-18T10:55:29.590Z,74.08
2018-01-18T10:57:57.894Z,74.69
2018-01-18T11:00:26.236Z,72.18
2018-01-18T11:02:54.545Z,71.21
2018-01-18T11:05:22.878Z,71.31
2018-01-18T11:07:51.190Z,70.73
2018-01-18T11:10:19.518Z,69.79
2018-01-18T11:12:48.181Z,69.51
2018-01-18T11:15:16.523Z,68.79
2018-01-18T11:17:44.862Z,69.97
2018-01-18T11:20:13.305Z,70.87
2018-01-18T11:22:41.601Z,71.07
2018-01-18T11:25:09.938Z,70.01
2018-01-18T11:27:38.254Z,70.15
2018-01-18T11:30:06.590Z,70.52
2018-01-18T11:32:34.897Z,71.05
2018-01-18T11:35:04.181Z,71.66
2018-01-18T11:37:32.493Z,73.00
2018-01-18T11:40:00.869Z,74.30
2018-01-18T11:42:29.142Z,76.80
2018-01-18T11:44:57.465Z,79.50
2018-01-18T11:47:25.777Z,81.79
2018-01-18T11:49:54.109Z,83.35
2018-01-18T11:52:22.444Z,85.12
2018-01-18T11:54:50.757Z,86.37
2018-01-18T11:57:19.106Z,87.15
2018-01-18T11:59:47.438Z,88.34
2018-01-18T12:02:15.770Z,88.33
2018-01-18T12:04:44.109Z,88.57
2018-01-18T12:07:12.410Z,89.39
2018-01-18T12:09:40.742Z,89.95
2018-01-18T12:12:09.044Z,89.79
2018-01-18T12:14:37.373Z,90.08
2018-01-18T12:17:05.689Z,90.43
2018-01-18T12:19:34.013Z,90.25
2018-01-18T12:22:02.391Z,90.71
2018-01-18T12:24:30.737Z,90.11
2018-01-18T12:26:59.069Z,89.69
2018-01-18T12:29:27.382Z,88.94
2018-01-18T12:31:55.713Z,88.79
2018-01-18T12:34:24.040Z,89.15
2018-01-18T12:36:52.363Z,89.02
2018-01-18T12:39:20.666Z,89.92
2018-01-18T12:41:49.030Z,89.47
2018-01-18T12:44:17.334Z,88.89
2018-01-18T12:46:45.666Z,87.65
2018-01-18T12:49:13.973Z,87.92
2018-01-18T12:51:42.318Z,87.92
2018-01-18T12:54:10.625Z,88.16
2018-01-18T12:56:38.953Z,88.17
2018-01-18T12:59:07.267Z,88.06
2018-01-18T13:01:35.597Z,88.89
2018-01-18T13:04:03.906Z,87.47
2018-01-18T13:06:32.237Z,86.99
2018-01-18T13:09:00.551Z,87.44
2018-01-18T13:11:28.881Z,86.30
2018-01-18T13:13:57.224Z,86.27
2018-01-18T13:16:25.533Z,86.21
2018-01-18T13:18:53.846Z,85.12
2018-01-18T13:21:22.185Z,85.41
2018-01-18T13:23:50.502Z,85.66
2018-01-18T13:26:18.830Z,84.84
2018-01-18T13:28:47.138Z,84.71
2018-01-18T13:31:15.476Z,83.78
2018-01-18T13:33:43.789Z,84.39
2018-01-18T13:36:12.122Z,82.63
2018-01-18T13:38:40.435Z,82.87
2018-01-18T13:41:08.773Z,82.64
2018-01-18T13:43:37.086Z,82.43
2018-01-18T13:46:05.413Z,82.39
2018-01-18T13:48:33.723Z,81.84
2018-01-18T13:51:02.062Z,81.26
2018-01-18T13:53:30.370Z,81.06
2018-01-18T13:55:58.705Z,81.18
2018-01-18T13:58:27.013Z,80.72
2018-01-18T14:00:55.361Z,80.97
2018-01-18T14:03:23.673Z,80.31
2018-01-18T14:05:52.010Z,79.87
2018-01-18T14:08:20.334Z,79.62
2018-01-18T14:10:48.666Z,80.62
2018-01-18T14:13:16.989Z,82.08
2018-01-18T14:15:45.338Z,81.86
2018-01-18T14:18:13.654Z,82.65
2018-01-18T14:20:41.981Z,82.01
2018-01-18T14:23:10.315Z,82.44
2018-01-18T14:25:39.569Z,82.80
2018-01-18T14:28:07.893Z,83.19
2018-01-18T14:30:36.209Z,83.35
2018-01-18T14:33:04.641Z,83.64
2018-01-18T14:35:33.949Z,83.58
2018-01-18T14:38:02.287Z,83.23
2018-01-18T14:40:30.626Z,82.59
2018-01-18T14:42:58.962Z,82.37
2018-01-18T14:45:27.268Z,81.67
2018-01-18T14:47:55.629Z,81.14
2018-01-18T14:50:23.927Z,80.76
2018-01-18T14:52:52.262Z,80.68
2018-01-18T14:55:20.573Z,80.07
2018-01-18T14:57:48.918Z,79.68
2018-01-18T15:00:17.233Z,79.53
2018-01-18T15:02:45.570Z,79.73
2018-01-18T15:05:13.987Z,80.12
2018-01-18T15:07:42.316Z,80.83
2018-01-18T15:10:10.629Z,80.85
2018-01-18T15:12:38.970Z,80.93
2018-01-18T15:15:07.266Z,80.13
2018-01-18T15:17:35.597Z,80.74
2018-01-18T15:20:04.881Z,80.99
2018-01-18T15:22:33.208Z,81.56
2018-01-18T15:25:01.528Z,81.48
2018-01-18T15:27:29.857Z,81.23
2018-01-18T15:29:58.166Z,80.45
2018-01-18T15:32:26.544Z,80.72
2018-01-18T15:34:54.855Z,81.10
2018-01-18T15:37:23.186Z,81.07
2018-01-18T15:39:51.854Z,81.30
2018-01-18T15:42:20.195Z,81.57
2018-01-18T15:44:48.502Z,81.55
2018-01-18T15:47:16.838Z,81.67
2018-01-18T15:49:45.158Z,82.13
2018-01-18T15:52:13.486Z,82.35
2018-01-18T15:54:41.830Z,82.35
2018-01-18T15:57:10.366Z,82.70
2018-01-18T15:59:38.694Z,82.85
2018-01-18T16:02:07.028Z,83.09
2018-01-18T16:04:35.353Z,83.05
2018-01-18T16:07:03.653Z,83.32
2018-01-18T16:09:31.986Z,83.43
2018-01-18T16:12:00.323Z,83.47
2018-01-18T16:14:28.650Z,83.76
2018-01-18T16:16:57.909Z,83.47
2018-01-18T16:19:26.246Z,83.82
2018-01-18T16:21:55.402Z,84.00
2018-01-18T16:24:23.734Z,84.22
2018-01-18T16:26:52.049Z,84.38
2018-01-18T16:29:20.382Z,84.70
2018-01-18T16:31:48.685Z,84.93
2018-01-18T16:34:17.050Z,85.20
2018-01-18T16:36:45.417Z,86.15
2018-01-18T16:39:13.777Z,87.41
2018-01-18T16:41:42.129Z,88.11
2018-01-18T16:44:10.442Z,88.31
2018-01-18T16:46:38.791Z,88.44
2018-01-18T16:49:07.113Z,88.39
2018-01-18T16:51:35.421Z,88.01
2018-01-18T16:54:03.749Z,87.79
2018-01-18T16:56:32.279Z,87.50
2018-01-18T16:59:00.585Z,87.28
2018-01-18T17:01:28.920Z,87.10
2018-01-18T17:03:57.232Z,87.03
2018-01-18T17:06:25.561Z,87.08
2018-01-18T17:08:53.869Z,87.27
2018-01-18T17:11:22.201Z,87.21
2018-01-18T17:13:50.501Z,87.61
2018-01-18T17:16:19.080Z,87.93
2018-01-18T17:18:47.390Z,87.89
2018-01-18T17:21:15.725Z,88.07
2018-01-18T17:23:44.033Z,87.99
2018-01-18T17:26:12.366Z,87.97
2018-01-18T17:28:40.678Z,88.33
2018-01-18T17:31:09.005Z,88.49
2018-01-18T17:33:37.317Z,88.21
2018-01-18T17:36:05.650Z,88.01
2018-01-18T17:38:33.953Z,87.79
2018-01-18T17:41:02.289Z,87.95
2018-01-18T17:43:30.598Z,87.79
2018-01-18T17:45:58.924Z,88.06
2018-01-18T17:48:27.242Z,88.65
2018-01-18T17:50:55.577Z,88.85
2018-01-18T17:53:23.885Z,88.37
2018-01-18T17:55:52.213Z,88.48
2018-01-18T17:58:20.527Z,89.18
2018-01-18T18:00:48.853Z,89.15
2018-01-18T18:03:17.181Z,89.78
2018-01-18T18:05:45.497Z,89.64
2018-01-18T18:08:13.830Z,89.64
2018-01-18T18:10:42.206Z,89.81
2018-01-18T18:13:10.542Z,89.84
2018-01-18T18:15:38.980Z,89.88
2018-01-18T18:18:07.330Z,90.04
2018-01-18T18:20:35.658Z,89.99
2018-01-18T18:23:04.128Z,90.25
2018-01-18T18:25:32.516Z,90.17
2018-01-18T18:28:01.638Z,90.21
2018-01-18T18:30:29.977Z,89.98
2018-01-18T18:32:58.380Z,90.05
2018-01-18T18:35:26.721Z,90.30
2018-01-18T18:37:55.064Z,90.41
2018-01-18T18:40:23.374Z,90.74
2018-01-18T18:42:51.741Z,90.69
2018-01-18T18:45:20.059Z,90.53
2018-01-18T18:47:48.364Z,90.20
2018-01-18T18:50:16.701Z,89.96
2018-01-18T18:52:45.013Z,89.56
2018-01-18T18:55:13.353Z,88.99
2018-01-18T18:57:41.665Z,88.80
2018-01-18T19:00:10.002Z,88.58
2018-01-18T19:02:38.318Z,88.57
2018-01-18T19:05:07.429Z,88.27
2018-01-18T19:07:35.745Z,87.72
2018-01-18T19:10:04.086Z,87.81
2018-01-18T19:12:32.389Z,87.73
2018-01-18T19:15:00.914Z,88.00
2018-01-18T19:17:29.275Z,87.44
2018-01-18T19:19:57.630Z,86.51
2018-01-18T19:22:25.917Z,86.55
2018-01-18T19:24:54.254Z,85.74
2018-01-18T19:27:22.569Z,85.91
2018-01-18T19:29:50.910Z,85.96
2018-01-18T19:32:19.419Z,85.82
2018-01-18T19:34:47.878Z,85.96
2018-01-18T19:37:16.185Z,86.04
2018-01-18T19:39:44.525Z,86.03
2018-01-18T19:42:12.846Z,86.16
2018-01-18T19:44:41.157Z,86.34
2018-01-18T19:47:09.486Z,86.54
2018-01-18T19:49:37.789Z,86.63
2018-01-18T19:52:06.117Z,86.43
2018-01-18T19:54:34.426Z,86.82
2018-01-18T19:57:02.762Z,86.99
2018-01-18T19:59:31.073Z,86.83
2018-01-18T20:01:59.401Z,86.68
2018-01-18T20:04:30.793Z,86.81
2018-01-18T20:06:59.117Z,86.68
2018-01-18T20:09:27.436Z,86.93
2018-01-18T20:11:55.765Z,86.90
2018-01-18T20:14:24.570Z,87.07
2018-01-18T20:16:52.909Z,87.05
2018-01-18T20:19:21.273Z,86.89
2018-01-18T20:21:49.610Z,86.99
2018-01-18T20:24:17.924Z,86.63
2018-01-18T20:26:46.262Z,86.45
2018-01-18T20:29:14.582Z,86.43
2018-01-18T20:31:42.922Z,86.26
2018-01-18T20:34:12.105Z,85.73
2018-01-18T20:36:40.410Z,85.78
2018-01-18T20:39:08.737Z,85.72
2018-01-18T20:41:37.063Z,85.78
2018-01-18T20:44:05.453Z,85.70
2018-01-18T20:46:33.757Z,85.56
2018-01-18T20:49:02.093Z,85.51
2018-01-18T20:51:30.405Z,85.28
2018-01-18T20:53:59.753Z,85.36
2018-01-18T20:56:28.061Z,85.33
2018-01-18T20:58:56.404Z,85.40
2018-01-18T21:01:24.716Z,85.37
2018-01-18T21:03:53.054Z,85.44
2018-01-18T21:06:21.361Z,85.24
2018-01-18T21:08:49.691Z,85.10
2018-01-18T21:11:18.012Z,85.01
2018-01-18T21:13:46.469Z,84.63
2018-01-18T21:16:14.785Z,84.52
2018-01-18T21:18:43.123Z,84.61
2018-01-18T21:21:11.429Z,84.52
2018-01-18T21:23:39.757Z,84.76
2018-01-18T21:26:08.065Z,84.96
2018-01-18T21:28:36.402Z,84.90
2018-01-18T21:31:04.719Z,84.64
2018-01-18T21:33:33.049Z,84.51
2018-01-18T21:36:01.385Z,84.85
2018-01-18T21:38:29.714Z,84.69
2018-01-18T21:40:58.030Z,84.93
2018-01-18T21:43:26.361Z,85.16
2018-01-18T21:45:54.685Z,85.28
2018-01-18T21:48:23.005Z,84.98
2018-01-18T21:50:51.318Z,85.23
2018-01-18T21:53:19.645Z,84.93
2018-01-18T21:55:47.957Z,85.00
2018-01-18T21:58:16.285Z,84.72
2018-01-18T22:00:44.622Z,84.70
2018-01-18T22:03:12.953Z,84.44
2018-01-18T22:05:41.269Z,84.43
2018-01-18T22:08:09.614Z,84.50
2018-01-18T22:10:37.926Z,84.45
2018-01-18T22:13:06.237Z,84.47
2018-01-18T22:15:34.575Z,84.65
2018-01-18T22:18:02.888Z,84.73
2018-01-18T22:20:31.217Z,84.67
2018-01-18T22:22:59.546Z,84.29
2018-01-18T22:25:27.873Z,84.65
2018-01-18T22:27:56.188Z,84.06
2018-01-18T22:30:24.522Z,84.21
2018-01-18T22:32:52.834Z,84.20
2018-01-18T22:35:21.187Z,84.41
2018-01-18T22:37:49.497Z,84.47
2018-01-18T22:40:17.936Z,84.73
2018-01-18T22:42:46.225Z,85.08
2018-01-18T22:45:19.878Z,85.27
2018-01-18T22:47:48.202Z,85.66
2018-01-18T22:50:16.537Z,85.75
2018-01-18T22:52:44.850Z,86.34
2018-01-18T22:55:13.174Z,86.44
2018-01-18T22:57:41.486Z,86.35
2018-01-18T23:00:09.812Z,86.88
2018-01-18T23:02:38.113Z,87.08
2018-01-18T23:05:06.445Z,87.05
2018-01-18T23:07:34.752Z,87.07
2018-01-18T23:10:03.081Z,87.83
2018-01-18T23:12:31.394Z,88.23
2018-01-18T23:14:59.725Z,88.69
2018-01-18T23:17:28.043Z,89.09
2018-01-18T23:19:56.371Z,89.79
2018-01-18T23:22:24.690Z,90.00
2018-01-18T23:24:53.024Z,90.06
2018-01-18T23:27:21.325Z,90.09
2018-01-18T23:29:49.653Z,90.04
2018-01-18T23:32:17.961Z,90.04
2018-01-18T23:34:46.301Z,90.19
2018-01-18T23:37:14.605Z,90.40
2018-01-18T23:39:42.941Z,90.44
2018-01-18T23:42:11.248Z,90.55
2018-01-18T23:44:39.581Z,90.40
2018-01-18T23:47:07.893Z,90.80
2018-01-18T23:49:36.225Z,90.77
2018-01-18T23:52:04.538Z,90.43
2018-01-18T23:54:32.865Z,90.36
2018-01-18T23:57:01.178Z,90.12
2018-01-18T23:59:29.505Z,90.16
